Somes Bar, CA (95568)

9:55 PM PST on November 22, 2014 (GMT -0800)
RAWS DUTCH-INDY CA US | Change Station
CLOSE
Current Station
Personal Weather Station
Location: Happy Camp, CA
Elevation: 2281 ft
Nearby Weather Stations

Elev 2281 ft 41.64 °N, 123.44 °W | Updated 59 minutes ago

Partly Cloudy
Partly Cloudy
42 °F
Feels Like 42 °F
N
3
Wind Variable Wind from SSE
Gusts 8.0 mph

Today
High -- | Low -- °F
--% Chance of Precip.
Yesterday
High -- | Low -- °F
Precip. -- in
7:10 AM 4:49 PM
New Moon, 1% visible
Pressure 30.28 in
Visibility 10.0 miles
Clouds Clear
Windchill 42 °F
Dew Point 42 °F
Humidity 100%
Rainfall 1.06 in
Snow Depth Not available.
UV 0 out of 12
Pollen .30 out of 12
Air Quality Not available.
Flu Activity Not available.
METAR KO86 230530Z AUTO 26003KT 10SM CLR 02/01 A3028 RMK AO1

More Conditions Fewer Conditions

Pressure 30.28 in
Visibility 10.0 miles
Clouds Clear
Windchill 42 °F
Dew Point 42 °F
Humidity 100%
Rainfall 1.06 in
Snow Depth Not available.
UV 0 out of 12
Pollen .30 out of 12
Air Quality Not available.
Flu Activity Not available.
METAR KO86 230530Z AUTO 26003KT 10SM CLR 02/01 A3028 RMK AO1

More Conditions Fewer Conditions

10-Day Weather Forecast

Almanac

Astronomy

Nov. 22, 2014 Rise Set
Actual Time
Civil Twilight
Nautical Twilight
Astronomical Twilight
Moon
Length of Visible Light
Length of Day
Tomorrow will be .
, % of the Moon is Illuminated

Today's Extremes

State Highs State Lows

Community

WunderPhotos

Upload Photos

1,773,017 photos uploaded!

WunderBlogs® & News

Nearby

Air Quality

  Air Quality AQ Index Pollutant
Not available.

Snow Depth

Station Depth Elevation

Earthquake Activity

City Distance Mag. Time & Date
Minimum magnitude displayed is 2.5.

Coastal Water Temperatures

Place Temperature

Nearby Weather Stations